createdAt,value
2022-08-25T00:03:29.554Z,148.65116
2022-08-25T00:08:37.984Z,144
2022-08-25T00:13:39.707Z,144.65147
2022-08-25T00:18:42.124Z,149.33333
2022-08-25T00:23:44.103Z,146.63158
2022-08-25T00:28:46.074Z,143.35275
2022-08-25T00:33:48.352Z,137.71069
2022-08-25T00:38:50.371Z,129.54217
2022-08-25T00:43:52.836Z,124.64516
2022-08-25T00:48:54.835Z,109.14745
2022-08-25T00:53:57.090Z,101.94872
2022-08-25T00:58:59.609Z,95.35135
2022-08-25T01:04:01.953Z,92.43373
2022-08-25T01:09:03.762Z,82.11659
2022-08-25T01:14:05.528Z,83.68254
2022-08-25T01:19:07.876Z,80.28319
2022-08-25T01:24:10.095Z,78.49782
2022-08-25T01:29:12.410Z,78.20479
2022-08-25T01:34:14.413Z,78.49782
2022-08-25T01:39:16.490Z,77.91304
2022-08-25T01:44:18.776Z,78.49782
2022-08-25T01:49:21.310Z,80.28319
2022-08-25T01:54:23.278Z,81.80761
2022-08-25T01:59:25.668Z,83.05192
2022-08-25T02:04:28.227Z,83.36652
2022-08-25T02:09:30.510Z,83.05192
2022-08-25T02:14:32.310Z,82.42697
2022-08-25T02:19:34.673Z,83.36652
2022-08-25T02:24:36.429Z,82.42697
2022-08-25T02:29:38.639Z,82.42697
2022-08-25T02:34:40.909Z,83.68254
2022-08-25T02:39:43.132Z,84.31891
2022-08-25T02:44:45.186Z,86.59259
2022-08-25T02:49:46.854Z,87.92523
2022-08-25T02:54:48.645Z,87.25581
2022-08-25T02:59:50.614Z,87.58974
2022-08-25T03:04:53.147Z,88.60094
2022-08-25T03:09:57.355Z,86.92343
2022-08-25T03:14:59.230Z,87.92523
2022-08-25T03:20:01.337Z,87.92523
2022-08-25T03:25:03.114Z,84.9611
2022-08-25T03:30:05.211Z,84
2022-08-25T03:35:07.259Z,83.36652
2022-08-25T03:40:09.459Z,83.68254
2022-08-25T03:45:17.611Z,84.9611
2022-08-25T03:50:19.835Z,85.2844
2022-08-25T03:55:21.854Z,88.60094
2022-08-25T04:00:23.831Z,87.58974
2022-08-25T04:05:26.765Z,85.93548
2022-08-25T04:10:28.686Z,85.6092
2022-08-25T04:15:30.430Z,86.59259
2022-08-25T04:20:32.597Z,87.92523
2022-08-25T04:25:34.160Z,87.92523
2022-08-25T04:30:35.830Z,86.59259
2022-08-25T04:35:40.861Z,86.26328
2022-08-25T04:40:42.527Z,86.59259
2022-08-25T04:45:44.105Z,85.2844
2022-08-25T04:50:46.593Z,85.93548
2022-08-25T04:55:48.390Z,86.26328
2022-08-25T05:00:50.308Z,85.93548
2022-08-25T05:05:52.395Z,85.93548
2022-08-25T05:10:53.999Z,87.25581
2022-08-25T05:15:55.729Z,88.94118
2022-08-25T05:20:57.448Z,89.28302
2022-08-25T05:25:59.099Z,89.28302
2022-08-25T05:31:02.614Z,91.36842
2022-08-25T05:36:04.117Z,93.15254
2022-08-25T05:41:06.110Z,98
2022-08-25T05:46:08.076Z,98
2022-08-25T05:51:10.821Z,98.77387
2022-08-25T05:56:12.711Z,108.70588
2022-08-25T06:01:14.711Z,117.03371
2022-08-25T06:06:16.879Z,124.64516
2022-08-25T06:11:18.671Z,138.93671
2022-08-25T06:16:20.726Z,143.35275
2022-08-25T06:21:23.629Z,156.41379
2022-08-25T06:26:25.610Z,155.68385
2022-08-25T06:31:27.592Z,164
2022-08-25T06:36:29.903Z,171.30627
2022-08-25T06:41:36.661Z,172.14815
2022-08-25T06:46:39.130Z,184.625
2022-08-25T06:51:41.133Z,175.57895
2022-08-25T06:56:42.608Z,220.23318
2022-08-25T07:01:44.685Z,222.73303
2022-08-25T07:06:46.697Z,252
2022-08-25T07:11:48.640Z,240.15385
2022-08-25T07:16:50.586Z,227.87097
2022-08-25T07:21:52.668Z,296
2022-08-25T07:26:54.554Z,278.78261
2022-08-25T07:31:56.524Z,288.13408
2022-08-25T07:36:58.569Z,326.6087
2022-08-25T07:42:00.064Z,333.87342
2022-08-25T07:47:03.641Z,429.03937
2022-08-25T07:52:06.795Z,504
2022-08-25T07:57:09.366Z,504
2022-08-25T08:02:16.107Z,514.37037
2022-08-25T08:07:20.872Z,514.37037
2022-08-25T08:12:25.182Z,461.64706
2022-08-25T08:17:26.644Z,509.13761
2022-08-25T08:22:29.016Z,519.70093
2022-08-25T08:27:30.941Z,542.05825
2022-08-25T08:33:05.862Z,592.42105
2022-08-25T08:38:16.144Z,572.57143
2022-08-25T08:43:21.808Z,606.36559
2022-08-25T08:48:27.090Z,644
2022-08-25T08:53:34.254Z,723.74684
2022-08-25T08:58:36.271Z,686.16867
2022-08-25T09:03:39.644Z,686.16867
2022-08-25T09:08:44.562Z,686.16867
2022-08-25T09:13:46.595Z,660.27907
2022-08-25T09:18:50.958Z,714
2022-08-25T09:23:54.605Z,714
2022-08-25T09:28:56.566Z,754.52632
2022-08-25T09:33:58.319Z,677.33333
2022-08-25T09:39:00.111Z,686.16867
2022-08-25T09:44:01.813Z,723.74684
2022-08-25T09:49:03.605Z,754.52632
2022-08-25T09:54:10.708Z,723.74684
2022-08-25T09:59:15.675Z,787.83562
2022-08-25T10:04:20.737Z,677.33333
2022-08-25T10:09:23.042Z,754.52632
2022-08-25T10:14:24.859Z,704.49383
2022-08-25T10:19:26.807Z,677.33333
2022-08-25T10:24:30.019Z,677.33333
2022-08-25T10:29:32.643Z,599.31915
2022-08-25T10:34:35.864Z,613.56522
2022-08-25T10:39:40.525Z,714
2022-08-25T10:44:42.831Z,704.49383
2022-08-25T10:49:44.628Z,644
2022-08-25T10:54:47.227Z,677.33333
2022-08-25T10:59:49.578Z,599.31915
2022-08-25T11:04:51.474Z,704.49383
2022-08-25T11:09:53.509Z,744
2022-08-25T11:14:55.661Z,824
2022-08-25T11:19:57.549Z,744
2022-08-25T11:24:59.704Z,695.21951
2022-08-25T11:30:01.497Z,714
2022-08-25T11:35:03.474Z,799.55556
2022-08-25T11:40:05.596Z,811.60563
2022-08-25T11:45:10.928Z,765.33333
2022-08-25T11:50:13.036Z,686.16867
2022-08-25T11:55:15.194Z,863.40299
2022-08-25T12:00:17.162Z,988.0678
2022-08-25T12:05:19.326Z,1006.06897
2022-08-25T12:10:22.671Z,863.40299
2022-08-25T12:15:25.000Z,906.5
2022-08-25T12:20:26.828Z,988.0678
2022-08-25T12:25:29.074Z,1044
2022-08-25T12:30:36.705Z,1283.13043
2022-08-25T12:35:38.949Z,1254.6383
2022-08-25T12:40:42.004Z,1044
2022-08-25T12:45:43.803Z,1084.74074
2022-08-25T12:50:45.679Z,970.66667
2022-08-25T12:55:47.506Z,1283.13043
2022-08-25T13:00:52.684Z,1312.88889
2022-08-25T13:05:54.694Z,1810.66667
2022-08-25T13:10:57.735Z,1446.43902
2022-08-25T13:15:59.370Z,1565.05263
2022-08-25T13:21:01.225Z,1704
2022-08-25T13:26:04.170Z,2068.13793
2022-08-25T13:31:06.598Z,1997.33333
2022-08-25T13:36:08.616Z,1810.66667
2022-08-25T13:41:11.982Z,2225.48148
2022-08-25T13:46:14.021Z,2313.23077
2022-08-25T13:51:17.135Z,2408
2022-08-25T13:56:19.159Z,1997.33333
2022-08-25T14:01:47.213Z,1655.11111
2022-08-25T14:06:51.180Z,1704
2022-08-25T14:11:53.028Z,1608.86486
2022-08-25T14:16:57.324Z,1931.09677
2022-08-25T14:21:59.580Z,2225.48148
2022-08-25T14:27:02.019Z,2313.23077
2022-08-25T14:32:03.738Z,1931.09677
2022-08-25T14:37:05.678Z,1869
2022-08-25T14:42:10.320Z,1704
2022-08-25T14:47:12.097Z,1254.6383
2022-08-25T14:52:13.877Z,1376.55814
2022-08-25T14:57:16.258Z,1565.05263
2022-08-25T15:02:18.381Z,1410.66667
2022-08-25T15:07:21.851Z,1523.48718
2022-08-25T15:12:45.961Z,1201.14286
2022-08-25T15:17:49.437Z,1006.06897
2022-08-25T15:22:52.465Z,776.43243
2022-08-25T15:27:54.428Z,668.70588
2022-08-25T15:32:56.295Z,498.95495
2022-08-25T15:37:58.563Z,536.30769
2022-08-25T15:43:00.121Z,514.37037
2022-08-25T15:48:03.241Z,466.0339
2022-08-25T15:53:05.276Z,421.51938
2022-08-25T15:58:12.375Z,414.22901
2022-08-25T16:03:14.370Z,341.41935
2022-08-25T16:08:19.207Z,278.78261
2022-08-25T16:13:21.756Z,264.83333
2022-08-25T16:18:23.943Z,280.61202
2022-08-25T16:23:25.734Z,278.78261
2022-08-25T16:28:27.963Z,253.54774
2022-08-25T16:33:29.822Z,238.73684
2022-08-25T16:38:34.092Z,212.99563
2022-08-25T16:43:35.632Z,206.12766
2022-08-25T16:48:37.994Z,174.71161
2022-08-25T16:53:39.951Z,148.65116
2022-08-25T16:58:42.292Z,142.70968
2022-08-25T17:03:47.253Z,143.35275
2022-08-25T17:08:48.740Z,145.96721
2022-08-25T17:13:50.638Z,142.70968
2022-08-25T17:18:52.347Z,142.07074
2022-08-25T17:23:56.598Z,135.30435
2022-08-25T17:28:59.397Z,134.71207
2022-08-25T17:34:01.087Z,135.90031
2022-08-25T17:39:02.754Z,134.71207
2022-08-25T17:44:04.742Z,136.5
2022-08-25T17:49:06.674Z,137.71069
2022-08-25T17:54:08.107Z,127.33333
2022-08-25T17:59:10.177Z,124.11696
2022-08-25T18:04:18.009Z,135.30435
2022-08-25T18:09:21.641Z,137.71069
2022-08-25T18:14:25.586Z,134.12346
2022-08-25T18:19:27.771Z,139.55556
2022-08-25T18:24:29.653Z,141.4359
2022-08-25T18:29:32.452Z,147.30033
2022-08-25T18:34:34.221Z,195.42857
2022-08-25T18:39:37.673Z,207.24786
2022-08-25T18:44:39.230Z,212.99563
2022-08-25T18:49:41.324Z,187.47826
2022-08-25T18:54:43.246Z,181.83784
2022-08-25T18:59:44.877Z,180.92308
2022-08-25T19:04:46.954Z,186.51969
2022-08-25T19:09:48.711Z,187.47826
2022-08-25T19:14:52.987Z,206.12766
2022-08-25T19:19:54.833Z,244.4878
2022-08-25T19:24:56.775Z,261.52577
2022-08-25T19:29:58.855Z,244.4878
2022-08-25T19:35:00.798Z,240.15385
2022-08-25T19:40:02.727Z,214.17544
2022-08-25T19:45:06.282Z,212.99563
2022-08-25T19:50:08.629Z,215.36564
2022-08-25T19:55:11.346Z,202.82353
2022-08-25T20:00:14.037Z,193.39271
2022-08-25T20:05:15.847Z,194.4065
2022-08-25T20:10:26.351Z,196.45902
2022-08-25T20:15:29.289Z,202.82353
2022-08-25T20:20:38.737Z,194.4065
2022-08-25T20:25:41.334Z,199.60166
2022-08-25T20:30:43.299Z,195.42857
2022-08-25T20:35:44.929Z,201.74059
2022-08-25T20:40:47.206Z,195.42857
2022-08-25T20:45:50.524Z,190.4
2022-08-25T20:50:57.433Z,194.4065
2022-08-25T20:55:59.306Z,176.45283
2022-08-25T21:01:01.232Z,164.78853
2022-08-25T21:06:02.730Z,161.66784
2022-08-25T21:11:04.157Z,155.68385
2022-08-25T21:16:06.206Z,152.10811
2022-08-25T21:21:07.849Z,152.10811
2022-08-25T21:26:10.607Z,152.81356
2022-08-25T21:31:13.720Z,151.40741
2022-08-25T21:36:15.447Z,151.40741
2022-08-25T21:41:16.917Z,147.97351
2022-08-25T21:46:18.643Z,150.71141
2022-08-25T21:51:20.135Z,147.30033
2022-08-25T21:56:23.647Z,142.07074
2022-08-25T22:01:28.918Z,141.4359
2022-08-25T22:06:31.087Z,142.07074
2022-08-25T22:11:33.934Z,138.93671
2022-08-25T22:16:38.113Z,138.32177
2022-08-25T22:21:39.725Z,140.17834
2022-08-25T22:26:41.344Z,140.17834
2022-08-25T22:31:43.761Z,136.5
2022-08-25T22:36:45.463Z,135.90031
2022-08-25T22:41:48.830Z,134.71207
2022-08-25T22:46:50.766Z,133.53846
2022-08-25T22:51:53.737Z,132.3792
2022-08-25T22:56:57.158Z,132.3792
2022-08-25T23:01:59.643Z,131.80488
2022-08-25T23:07:01.418Z,130.66667
2022-08-25T23:12:03.414Z,128.98498
2022-08-25T23:17:07.458Z,126.24852
2022-08-25T23:22:09.455Z,122.55072
2022-08-25T23:27:12.497Z,119
2022-08-25T23:32:14.653Z,119.49858
2022-08-25T23:37:18.594Z,119.49858
2022-08-25T23:42:20.894Z,119
2022-08-25T23:47:22.950Z,119.49858
2022-08-25T23:52:24.930Z,121.01149
2022-08-25T23:57:26.808Z,120
